createdAt,value
2022-11-08T00:00:41.381Z,11.17
2022-11-08T00:03:09.427Z,11.13
2022-11-08T00:05:56.446Z,11.35
2022-11-08T00:08:41.587Z,11.38
2022-11-08T00:11:27.238Z,11.23
2022-11-08T00:14:04.172Z,11.80
2022-11-08T00:16:32.099Z,11.07
2022-11-08T00:19:00.048Z,12.32
2022-11-08T00:21:29.684Z,10.98
2022-11-08T00:24:00.797Z,11.68
2022-11-08T00:26:29.173Z,12.57
2022-11-08T00:28:57.820Z,11.43
2022-11-08T00:31:29.167Z,11.80
2022-11-08T00:33:58.659Z,12.05
2022-11-08T00:36:26.841Z,13.17
2022-11-08T00:38:56.674Z,12.88
2022-11-08T00:41:25.238Z,13.13
2022-11-08T00:43:53.683Z,12.18
2022-11-08T00:46:21.762Z,14.07
2022-11-08T00:48:49.961Z,13.73
2022-11-08T00:51:22.816Z,13.60
2022-11-08T00:53:50.967Z,13.10
2022-11-08T00:56:28.295Z,13.67
2022-11-08T00:58:56.343Z,14.10
2022-11-08T01:01:24.386Z,14.18
2022-11-08T01:03:56.827Z,13.30
2022-11-08T01:06:26.432Z,13.07
2022-11-08T01:08:56.984Z,13.48
2022-11-08T01:11:29.791Z,12.70
2022-11-08T01:13:59.575Z,13.13
2022-11-08T01:16:30.505Z,12.73
2022-11-08T01:19:03.272Z,12.73
2022-11-08T01:21:32.754Z,13.63
2022-11-08T01:24:00.768Z,13.10
2022-11-08T01:26:30.838Z,13.87
2022-11-08T01:28:59.688Z,13.27
2022-11-08T01:31:30.961Z,12.88
2022-11-08T01:34:01.699Z,13.17
2022-11-08T01:36:30.337Z,13.30
2022-11-08T01:38:58.753Z,13.33
2022-11-08T01:41:30.282Z,12.93
2022-11-08T01:43:58.983Z,15.18
2022-11-08T01:46:45.568Z,14.97
2022-11-08T01:49:34.111Z,13.13
2022-11-08T01:52:17.278Z,14.23
2022-11-08T01:54:52.420Z,13.20
2022-11-08T01:57:25.967Z,13.53
2022-11-08T01:59:57.575Z,13.32
2022-11-08T02:02:25.805Z,13.50
2022-11-08T02:04:54.012Z,12.97
2022-11-08T02:07:23.187Z,13.60
2022-11-08T02:09:51.125Z,13.30
2022-11-08T02:12:23.670Z,13.00
2022-11-08T02:14:51.996Z,13.73
2022-11-08T02:17:23.505Z,13.13
2022-11-08T02:19:54.771Z,13.57
2022-11-08T02:22:35.402Z,13.40
2022-11-08T02:25:05.571Z,13.73
2022-11-08T02:27:33.801Z,12.93
2022-11-08T02:30:05.068Z,12.47
2022-11-08T02:32:39.652Z,13.67
2022-11-08T02:35:13.964Z,13.17
2022-11-08T02:37:42.377Z,13.23
2022-11-08T02:40:14.973Z,15.17
2022-11-08T02:42:42.891Z,12.67
2022-11-08T02:45:10.982Z,13.20
2022-11-08T02:47:38.870Z,13.80
2022-11-08T02:50:08.559Z,13.23
2022-11-08T02:52:36.749Z,12.80
2022-11-08T02:55:05.365Z,14.33
2022-11-08T02:57:37.534Z,13.33
2022-11-08T03:00:06.425Z,13.23
2022-11-08T03:02:34.790Z,13.53
2022-11-08T03:05:02.887Z,13.35
2022-11-08T03:07:31.227Z,13.77
2022-11-08T03:09:59.284Z,12.67
2022-11-08T03:12:27.814Z,13.25
2022-11-08T03:14:59.406Z,12.60
2022-11-08T03:17:27.620Z,13.15
2022-11-08T03:19:56.273Z,12.68
2022-11-08T03:22:24.336Z,12.20
2022-11-08T03:24:52.842Z,12.98
2022-11-08T03:27:21.820Z,13.13
2022-11-08T03:29:50.322Z,12.13
2022-11-08T03:32:19.648Z,12.35
2022-11-08T03:34:47.552Z,13.35
2022-11-08T03:37:15.459Z,11.65
2022-11-08T03:39:44.328Z,12.73
2022-11-08T03:42:12.173Z,14.03
2022-11-08T03:44:40.037Z,12.48
2022-11-08T03:47:07.983Z,13.25
2022-11-08T03:49:37.736Z,13.05
2022-11-08T03:52:05.909Z,14.00
2022-11-08T03:54:33.841Z,13.53
2022-11-08T03:57:01.753Z,14.30
2022-11-08T03:59:29.714Z,14.07
2022-11-08T04:01:57.740Z,13.33
2022-11-08T04:04:25.700Z,13.02
2022-11-08T04:06:55.250Z,12.35
2022-11-08T04:09:23.386Z,13.27
2022-11-08T04:12:09.017Z,14.07
2022-11-08T04:14:54.445Z,13.30
2022-11-08T04:17:42.388Z,13.38
2022-11-08T04:20:28.758Z,12.10
2022-11-08T04:22:58.603Z,12.82
2022-11-08T04:25:29.981Z,13.02
2022-11-08T04:28:00.466Z,12.80
2022-11-08T04:30:28.389Z,14.13
2022-11-08T04:32:56.242Z,13.30
2022-11-08T04:35:24.200Z,13.73
2022-11-08T04:37:52.072Z,13.90
2022-11-08T04:40:21.374Z,12.90
2022-11-08T04:42:49.249Z,13.13
2022-11-08T04:45:17.497Z,13.47
2022-11-08T04:47:48.457Z,14.10
2022-11-08T04:50:17.358Z,15.33
2022-11-08T04:52:52.847Z,14.20
2022-11-08T04:55:23.263Z,13.82
2022-11-08T04:57:51.603Z,13.75
2022-11-08T05:00:19.974Z,13.93
2022-11-08T05:02:47.945Z,14.80
2022-11-08T05:05:15.896Z,13.93
2022-11-08T05:07:44.549Z,13.10
2022-11-08T05:10:12.499Z,14.68
2022-11-08T05:12:41.744Z,13.57
2022-11-08T05:15:10.575Z,13.60
2022-11-08T05:17:39.605Z,13.25
2022-11-08T05:20:25.985Z,13.52
2022-11-08T05:23:11.602Z,13.85
2022-11-08T05:25:41.192Z,12.80
2022-11-08T05:28:10.501Z,13.63
2022-11-08T05:30:38.409Z,14.25
2022-11-08T05:33:06.334Z,13.65
2022-11-08T05:35:34.528Z,13.30
2022-11-08T05:38:02.529Z,13.60
2022-11-08T05:40:33.330Z,13.75
2022-11-08T05:43:01.688Z,13.63
2022-11-08T05:45:31.263Z,13.07
2022-11-08T05:48:03.699Z,13.88
2022-11-08T05:50:32.735Z,13.38
2022-11-08T05:53:00.887Z,14.38
2022-11-08T05:55:28.998Z,13.13
2022-11-08T05:57:56.989Z,12.77
2022-11-08T06:00:24.979Z,13.70
2022-11-08T06:02:54.326Z,13.30
2022-11-08T06:05:22.371Z,14.70
2022-11-08T06:07:50.431Z,14.57
2022-11-08T06:10:18.499Z,13.65
2022-11-08T06:12:46.378Z,14.05
2022-11-08T06:15:14.425Z,13.38
2022-11-08T06:17:42.879Z,12.82
2022-11-08T06:20:14.072Z,13.32
2022-11-08T06:22:43.460Z,12.38
2022-11-08T06:25:11.644Z,14.27
2022-11-08T06:27:39.543Z,12.82
2022-11-08T06:30:09.047Z,11.60
2022-11-08T06:32:37.155Z,12.45
2022-11-08T06:35:05.431Z,12.85
2022-11-08T06:37:34.729Z,12.80
2022-11-08T06:40:02.623Z,12.15
2022-11-08T06:42:30.818Z,13.10
2022-11-08T06:44:58.751Z,12.82
2022-11-08T06:47:26.734Z,13.32
2022-11-08T06:49:54.667Z,12.98
2022-11-08T06:52:22.557Z,12.05
2022-11-08T06:54:52.769Z,12.55
2022-11-08T06:57:20.774Z,10.80
2022-11-08T06:59:48.663Z,11.80
2022-11-08T07:02:16.735Z,11.85
2022-11-08T07:04:44.828Z,11.73
2022-11-08T07:07:12.776Z,11.75
2022-11-08T07:09:40.681Z,11.97
2022-11-08T07:12:10.296Z,11.02
2022-11-08T07:14:38.156Z,11.65
2022-11-08T07:17:06.079Z,11.32
2022-11-08T07:19:34.016Z,11.00
2022-11-08T07:22:02.002Z,10.57
2022-11-08T07:24:30.076Z,10.50
2022-11-08T07:26:57.948Z,10.75
2022-11-08T07:29:27.229Z,10.82
2022-11-08T07:31:55.135Z,11.60
2022-11-08T07:34:24.020Z,11.43
2022-11-08T07:36:51.942Z,11.65
2022-11-08T07:39:19.912Z,10.63
2022-11-08T07:41:49.731Z,11.32
2022-11-08T07:44:17.691Z,11.77
2022-11-08T07:46:47.011Z,12.35
2022-11-08T07:49:14.935Z,11.55
2022-11-08T07:51:42.943Z,12.43
2022-11-08T07:54:10.928Z,11.82
2022-11-08T07:56:38.869Z,11.35
2022-11-08T07:59:06.778Z,11.80
2022-11-08T08:01:34.830Z,11.13
2022-11-08T08:04:04.768Z,11.25
2022-11-08T08:06:32.761Z,10.93
2022-11-08T08:09:00.707Z,11.65
2022-11-08T08:11:33.465Z,10.90
2022-11-08T08:14:01.887Z,10.43
2022-11-08T08:16:29.929Z,11.40
2022-11-08T08:18:57.829Z,11.25
2022-11-08T08:21:27.117Z,11.32
2022-11-08T08:23:55.055Z,11.48
2022-11-08T08:26:23.012Z,11.05
2022-11-08T08:28:50.919Z,11.68
2022-11-08T08:31:19.071Z,11.60
2022-11-08T08:33:47.059Z,13.15
2022-11-08T08:36:15.226Z,11.65
2022-11-08T08:38:44.928Z,11.93
2022-11-08T08:41:12.937Z,10.65
2022-11-08T08:43:40.955Z,11.10
2022-11-08T08:46:08.961Z,11.35
2022-11-08T08:48:38.565Z,10.73
2022-11-08T08:51:06.666Z,11.15
2022-11-08T08:53:34.667Z,10.77
2022-11-08T08:56:05.530Z,10.55
2022-11-08T08:58:33.585Z,10.38
2022-11-08T09:03:50.951Z,9.48
2022-11-08T09:06:18.917Z,9.20
2022-11-08T09:08:46.808Z,10.30
2022-11-08T09:11:16.258Z,10.48
2022-11-08T09:13:44.433Z,9.60
2022-11-08T09:16:13.763Z,9.82
2022-11-08T09:18:41.811Z,8.80
2022-11-08T09:21:09.975Z,9.85
2022-11-08T09:23:37.929Z,9.65
2022-11-08T09:26:07.084Z,10.65
2022-11-08T09:28:37.719Z,10.20
2022-11-08T09:31:09.156Z,10.13
2022-11-08T09:33:38.604Z,9.90
2022-11-08T09:36:08.136Z,9.63
2022-11-08T09:38:36.093Z,9.10
2022-11-08T09:41:22.160Z,9.85
2022-11-08T09:44:16.431Z,9.55
2022-11-08T09:46:52.075Z,9.52
2022-11-08T09:49:23.762Z,8.90
2022-11-08T09:51:52.317Z,9.00
2022-11-08T09:54:25.331Z,9.18
2022-11-08T09:56:55.885Z,10.02
2022-11-08T09:59:35.176Z,10.18
2022-11-08T10:02:03.500Z,9.65
2022-11-08T10:04:33.886Z,10.77
2022-11-08T10:07:23.973Z,10.38
2022-11-08T10:10:32.528Z,10.77
2022-11-08T10:13:09.403Z,10.60
2022-11-08T10:15:47.718Z,10.52
2022-11-08T10:18:40.511Z,10.25
2022-11-08T10:21:19.871Z,9.50
2022-11-08T10:23:55.831Z,10.63
2022-11-08T10:26:34.830Z,9.82
2022-11-08T10:29:08.518Z,10.18
2022-11-08T10:31:40.487Z,9.80
2022-11-08T10:34:15.085Z,9.60
2022-11-08T10:36:46.867Z,9.95
2022-11-08T10:39:19.882Z,10.05
2022-11-08T10:41:51.345Z,9.75
2022-11-08T10:44:22.338Z,10.20
2022-11-08T10:46:58.926Z,10.00
2022-11-08T10:49:29.219Z,9.20
2022-11-08T10:51:58.682Z,8.02
2022-11-08T10:54:44.242Z,12.48
2022-11-08T10:57:14.205Z,9.25
2022-11-08T10:59:42.740Z,9.73
2022-11-08T11:02:25.617Z,10.27
2022-11-08T11:04:56.099Z,9.05
2022-11-08T11:07:32.211Z,9.35
2022-11-08T11:10:17.584Z,8.75
2022-11-08T11:12:51.140Z,9.10
2022-11-08T11:15:19.382Z,9.75
2022-11-08T11:17:48.865Z,8.52
2022-11-08T11:20:23.221Z,8.73
2022-11-08T11:22:53.517Z,8.25
2022-11-08T11:25:23.731Z,8.38
2022-11-08T11:27:56.357Z,8.70
2022-11-08T11:30:33.084Z,8.55
2022-11-08T11:33:08.231Z,8.25
2022-11-08T11:35:43.248Z,8.35
2022-11-08T11:38:20.148Z,6.32
2022-11-08T11:40:50.746Z,7.05
2022-11-08T11:43:25.469Z,6.72
2022-11-08T11:45:59.612Z,6.85
2022-11-08T11:48:31.240Z,5.90
2022-11-08T11:51:00.159Z,5.90
2022-11-08T11:53:32.931Z,6.38
2022-11-08T11:56:22.345Z,7.03
2022-11-08T11:59:05.579Z,6.50
2022-11-08T12:01:47.902Z,6.20
2022-11-08T12:04:45.498Z,6.00
2022-11-08T12:07:20.510Z,6.38
2022-11-08T12:09:58.641Z,6.57
2022-11-08T12:12:40.878Z,6.43
2022-11-08T12:15:20.113Z,6.15
2022-11-08T12:18:25.772Z,7.32
2022-11-08T12:21:11.939Z,6.72
2022-11-08T12:24:04.793Z,6.05
2022-11-08T12:26:39.249Z,5.88
2022-11-08T12:29:24.785Z,6.35
2022-11-08T12:32:08.661Z,6.28
2022-11-08T12:34:49.574Z,5.50
2022-11-08T12:37:33.696Z,5.97
2022-11-08T12:40:07.094Z,6.20
2022-11-08T12:43:04.244Z,5.57
2022-11-08T12:46:05.778Z,6.45
2022-11-08T12:48:53.844Z,5.95
2022-11-08T12:51:27.558Z,6.50
2022-11-08T12:54:18.055Z,11.05
2022-11-08T12:56:49.669Z,6.10
2022-11-08T12:59:22.225Z,6.25
2022-11-08T13:01:51.698Z,5.78
2022-11-08T13:04:46.666Z,6.35
2022-11-08T13:07:32.290Z,5.57
2022-11-08T13:10:12.489Z,5.78
2022-11-08T13:13:04.350Z,5.68
2022-11-08T13:15:32.517Z,6.43
2022-11-08T13:18:23.629Z,5.85
2022-11-08T13:20:51.896Z,6.03
2022-11-08T13:23:28.502Z,5.82
2022-11-08T13:26:13.893Z,6.13
2022-11-08T13:28:43.739Z,6.00
2022-11-08T13:31:20.896Z,5.60
2022-11-08T13:34:02.710Z,6.28
2022-11-08T13:36:42.190Z,6.30
2022-11-08T13:39:28.580Z,6.15
2022-11-08T13:42:06.466Z,5.78
2022-11-08T13:45:00.767Z,6.18
2022-11-08T13:47:53.420Z,6.13
2022-11-08T13:50:53.106Z,6.43
2022-11-08T13:53:45.327Z,5.97
2022-11-08T13:56:39.441Z,6.38
2022-11-08T13:59:48.816Z,7.28
2022-11-08T14:02:45.297Z,6.10
2022-11-08T14:05:32.752Z,6.65
2022-11-08T14:08:32.025Z,6.60
2022-11-08T14:11:33.736Z,6.28
2022-11-08T14:14:13.160Z,6.65
2022-11-08T14:17:09.700Z,6.47
2022-11-08T14:19:41.349Z,6.00
2022-11-08T14:22:16.387Z,6.93
2022-11-08T14:24:44.932Z,7.50
2022-11-08T14:27:16.295Z,6.03
2022-11-08T14:29:44.330Z,6.72
2022-11-08T14:32:20.523Z,6.93
2022-11-08T14:34:49.871Z,6.65
2022-11-08T14:37:24.771Z,6.07
2022-11-08T14:39:54.482Z,7.00
2022-11-08T14:42:24.422Z,6.22
2022-11-08T14:44:55.694Z,6.30
2022-11-08T14:47:26.408Z,7.00
2022-11-08T14:49:56.051Z,6.07
2022-11-08T14:52:28.335Z,6.75
2022-11-08T14:55:04.469Z,19.95
2022-11-08T14:57:37.611Z,6.95
2022-11-08T15:00:14.757Z,6.85
2022-11-08T15:02:49.608Z,6.22
2022-11-08T15:05:31.645Z,6.55
2022-11-08T15:08:00.614Z,6.40
2022-11-08T15:10:29.431Z,6.82
2022-11-08T15:12:58.471Z,7.72
2022-11-08T15:15:30.518Z,6.50
2022-11-08T15:18:17.313Z,5.95
2022-11-08T15:20:57.758Z,6.13
2022-11-08T15:23:33.914Z,7.03
2022-11-08T15:26:02.392Z,6.50
2022-11-08T15:28:35.259Z,6.53
2022-11-08T15:31:05.191Z,7.55
2022-11-08T15:33:37.969Z,6.88
2022-11-08T15:36:15.038Z,7.55
2022-11-08T15:38:44.379Z,6.95
2022-11-08T15:41:32.824Z,6.30
2022-11-08T15:44:31.074Z,6.35
2022-11-08T15:46:59.088Z,6.82
2022-11-08T15:49:28.741Z,6.90
2022-11-08T15:51:59.657Z,6.35
2022-11-08T15:54:28.124Z,6.72
2022-11-08T15:56:57.555Z,6.93
2022-11-08T15:59:29.654Z,7.30
2022-11-08T16:02:00.127Z,6.97
2022-11-08T16:04:28.861Z,6.50
2022-11-08T16:07:03.480Z,6.60
2022-11-08T16:09:31.392Z,6.72
2022-11-08T16:12:00.793Z,8.38
2022-11-08T16:14:28.664Z,6.82
2022-11-08T16:16:56.595Z,7.43
2022-11-08T16:19:26.043Z,6.60
2022-11-08T16:21:54.166Z,8.13
2022-11-08T16:24:23.396Z,9.15
2022-11-08T16:26:51.342Z,7.47
2022-11-08T16:29:21.703Z,8.75
2022-11-08T16:31:50.271Z,8.95
2022-11-08T16:34:18.437Z,7.25
2022-11-08T16:36:48.135Z,7.35
2022-11-08T16:39:18.127Z,7.55
2022-11-08T16:41:47.431Z,8.43
2022-11-08T16:44:15.308Z,7.63
2022-11-08T16:46:43.375Z,8.30
2022-11-08T16:49:21.063Z,9.60
2022-11-08T16:51:49.876Z,7.70
2022-11-08T16:54:20.703Z,8.82
2022-11-08T16:56:51.566Z,8.10
2022-11-08T16:59:19.780Z,8.82
2022-11-08T17:01:49.996Z,8.65
2022-11-08T17:04:18.021Z,8.73
2022-11-08T17:06:46.045Z,8.90
2022-11-08T17:09:14.024Z,8.63
2022-11-08T17:11:41.921Z,7.60
2022-11-08T17:14:13.501Z,7.93
2022-11-08T17:16:41.755Z,8.52
2022-11-08T17:19:09.704Z,8.85
2022-11-08T17:21:44.745Z,8.95
2022-11-08T17:24:19.866Z,8.88
2022-11-08T17:26:49.598Z,8.63
2022-11-08T17:29:19.070Z,9.73
2022-11-08T17:31:47.018Z,9.55
2022-11-08T17:34:15.171Z,9.10
2022-11-08T17:36:43.181Z,9.38
2022-11-08T17:39:14.132Z,8.75
2022-11-08T17:41:42.346Z,9.45
2022-11-08T17:44:10.364Z,8.30
2022-11-08T17:46:39.972Z,9.15
2022-11-08T17:49:07.856Z,8.93
2022-11-08T17:51:36.644Z,7.93
2022-11-08T17:54:04.951Z,7.25
2022-11-08T17:56:33.106Z,7.43
2022-11-08T17:59:01.088Z,7.38
2022-11-08T18:01:29.071Z,8.73
2022-11-08T18:04:00.702Z,7.63
2022-11-08T18:06:28.618Z,7.35
2022-11-08T18:08:57.014Z,6.75
2022-11-08T18:11:25.271Z,7.80
2022-11-08T18:13:53.874Z,6.90
2022-11-08T18:16:23.355Z,7.53
2022-11-08T18:18:52.326Z,7.90
2022-11-08T18:21:21.587Z,7.72
2022-11-08T18:23:50.279Z,7.63
2022-11-08T18:26:19.368Z,7.95
2022-11-08T18:29:01.380Z,8.40
2022-11-08T18:31:38.023Z,9.02
2022-11-08T18:34:06.131Z,7.57
2022-11-08T18:36:35.754Z,10.38
2022-11-08T18:39:03.852Z,8.35
2022-11-08T18:41:32.996Z,8.38
2022-11-08T18:44:02.928Z,12.02
2022-11-08T18:46:34.894Z,8.15
2022-11-08T18:49:05.203Z,8.25
2022-11-08T18:51:33.344Z,7.75
2022-11-08T18:54:02.640Z,8.23
2022-11-08T18:56:30.600Z,7.85
2022-11-08T18:58:58.526Z,8.07
2022-11-08T19:01:26.739Z,9.35
2022-11-08T19:03:54.744Z,9.35
2022-11-08T19:06:22.711Z,9.45
2022-11-08T19:08:50.615Z,8.98
2022-11-08T19:11:22.938Z,8.40
2022-11-08T19:13:51.196Z,9.23
2022-11-08T19:16:21.269Z,9.65
2022-11-08T19:18:50.151Z,7.93
2022-11-08T19:21:23.660Z,10.82
2022-11-08T19:23:52.329Z,11.98
2022-11-08T19:26:23.361Z,17.33
2022-11-08T19:28:54.070Z,9.80
2022-11-08T19:31:24.457Z,9.60
2022-11-08T19:33:54.239Z,8.70
2022-11-08T19:36:23.960Z,9.20
2022-11-08T19:38:52.289Z,8.50
2022-11-08T19:41:25.361Z,9.63
2022-11-08T19:43:58.118Z,9.97
2022-11-08T19:46:31.120Z,9.57
2022-11-08T19:49:01.463Z,8.82
2022-11-08T19:51:30.813Z,8.85
2022-11-08T19:54:01.302Z,8.93
2022-11-08T19:56:57.700Z,9.77
2022-11-08T19:59:19.334Z,18.73
2022-11-08T20:01:47.374Z,9.38
2022-11-08T20:04:17.127Z,9.63
2022-11-08T20:06:46.112Z,11.83
2022-11-08T20:09:14.129Z,11.97
2022-11-08T20:11:43.375Z,11.35
2022-11-08T20:14:17.037Z,11.10
2022-11-08T20:16:50.656Z,10.60
2022-11-08T20:19:21.043Z,25.20
2022-11-08T20:21:51.693Z,29.45
2022-11-08T20:24:19.891Z,21.20
2022-11-08T20:26:49.329Z,16.48
2022-11-08T20:29:20.348Z,11.88
2022-11-08T20:31:51.068Z,10.03
2022-11-08T20:34:25.864Z,13.90
2022-11-08T20:36:57.199Z,38.00
2022-11-08T20:39:25.064Z,22.17
2022-11-08T20:41:54.303Z,19.30
2022-11-08T20:44:31.209Z,13.83
2022-11-08T20:47:00.542Z,14.03
2022-11-08T20:49:33.607Z,10.77
2022-11-08T20:52:16.927Z,10.17
2022-11-08T20:54:49.714Z,9.80
2022-11-08T20:57:24.689Z,9.43
2022-11-08T20:59:55.467Z,10.13
2022-11-08T21:02:23.348Z,9.77
2022-11-08T21:04:56.422Z,9.17
2022-11-08T21:10:40.956Z,9.50
2022-11-08T21:13:04.381Z,10.97
2022-11-08T21:15:32.324Z,9.80
2022-11-08T21:18:03.055Z,9.23
2022-11-08T21:20:32.061Z,11.87
2022-11-08T21:23:04.937Z,10.40
2022-11-08T21:25:35.002Z,10.57
2022-11-08T21:28:04.265Z,10.40
2022-11-08T21:30:32.170Z,11.20
2022-11-08T21:33:00.107Z,12.07
2022-11-08T21:35:27.980Z,11.43
2022-11-08T21:37:55.962Z,10.50
2022-11-08T21:40:23.954Z,11.30
2022-11-08T21:42:52.020Z,12.83
2022-11-08T21:45:21.334Z,11.47
2022-11-08T21:47:51.002Z,10.80
2022-11-08T21:50:19.377Z,12.03
2022-11-08T21:52:48.108Z,11.83
2022-11-08T21:55:16.997Z,11.57
2022-11-08T21:57:45.144Z,11.50
2022-11-08T22:00:17.606Z,11.13
2022-11-08T22:02:50.326Z,10.83
2022-11-08T22:05:19.001Z,11.50
2022-11-08T22:07:50.338Z,11.47
2022-11-08T22:10:23.723Z,10.70
2022-11-08T22:12:59.859Z,11.20
2022-11-08T22:15:33.727Z,10.83
2022-11-08T22:18:15.353Z,12.90
2022-11-08T22:21:02.700Z,11.53
2022-11-08T22:23:40.019Z,11.40
2022-11-08T22:26:13.285Z,11.90
2022-11-08T22:28:43.059Z,10.87
2022-11-08T22:31:13.263Z,14.37
2022-11-08T22:33:47.916Z,13.80
2022-11-08T22:36:22.610Z,13.17
2022-11-08T22:39:10.431Z,12.47
2022-11-08T22:41:50.260Z,12.73
2022-11-08T22:44:21.771Z,12.57
2022-11-08T22:46:51.204Z,13.63
2022-11-08T22:49:20.845Z,12.87
2022-11-08T22:51:48.967Z,12.30
2022-11-08T22:54:21.044Z,12.37
2022-11-08T22:56:51.350Z,12.03
2022-11-08T22:59:25.190Z,12.83
2022-11-08T23:01:53.764Z,10.97
2022-11-08T23:04:35.195Z,11.93
2022-11-08T23:07:06.948Z,10.70
2022-11-08T23:09:38.328Z,11.70
2022-11-08T23:12:27.070Z,12.13
2022-11-08T23:15:19.287Z,11.30
2022-11-08T23:17:49.880Z,11.50
2022-11-08T23:20:36.883Z,11.57
2022-11-08T23:23:21.981Z,11.87
2022-11-08T23:25:49.888Z,11.47
2022-11-08T23:28:35.381Z,11.53
2022-11-08T23:31:32.155Z,12.17
2022-11-08T23:34:00.135Z,11.00
2022-11-08T23:36:29.525Z,11.57
2022-11-08T23:38:58.526Z,13.00
2022-11-08T23:41:44.269Z,10.87
2022-11-08T23:44:27.857Z,11.20
2022-11-08T23:46:57.318Z,12.30
2022-11-08T23:49:25.663Z,10.93
2022-11-08T23:51:55.434Z,12.67
2022-11-08T23:54:23.672Z,10.90
2022-11-08T23:56:52.659Z,13.30
2022-11-08T23:59:20.658Z,12.87
